sensor_id;sensor_type;location;lat;lon;timestamp;P1;durP1;ratioP1;P2;durP2;ratioP2
38994;SDS011;24769;18.712;99.000;2023-03-23T00:00:59;133.75;;;132.00;;
38994;SDS011;24769;18.712;99.000;2023-03-23T00:03:26;139.25;;;136.50;;
38994;SDS011;24769;18.712;99.000;2023-03-23T00:06:03;137.75;;;135.50;;
38994;SDS011;24769;18.712;99.000;2023-03-23T00:08:32;135.50;;;134.00;;
38994;SDS011;24769;18.712;99.000;2023-03-23T00:11:11;138.25;;;136.00;;
38994;SDS011;24769;18.712;99.000;2023-03-23T00:13:40;137.75;;;136.50;;
38994;SDS011;24769;18.712;99.000;2023-03-23T00:16:11;141.50;;;139.25;;
38994;SDS011;24769;18.712;99.000;2023-03-23T00:18:48;141.00;;;139.25;;
38994;SDS011;24769;18.712;99.000;2023-03-23T00:21:19;135.50;;;134.00;;
38994;SDS011;24769;18.712;99.000;2023-03-23T00:24:02;133.20;;;133.20;;
38994;SDS011;24769;18.712;99.000;2023-03-23T00:26:35;138.60;;;137.00;;
38994;SDS011;24769;18.712;99.000;2023-03-23T00:29:06;139.00;;;137.60;;
38994;SDS011;24769;18.712;99.000;2023-03-23T00:31:38;137.20;;;135.80;;
38994;SDS011;24769;18.712;99.000;2023-03-23T00:34:06;137.80;;;134.60;;
38994;SDS011;24769;18.712;99.000;2023-03-23T00:36:33;135.60;;;133.60;;
38994;SDS011;24769;18.712;99.000;2023-03-23T00:39:08;135.80;;;133.60;;
38994;SDS011;24769;18.712;99.000;2023-03-23T00:41:34;135.00;;;132.00;;
38994;SDS011;24769;18.712;99.000;2023-03-23T00:44:02;136.60;;;133.80;;
38994;SDS011;24769;18.712;99.000;2023-03-23T00:46:29;138.60;;;136.00;;
38994;SDS011;24769;18.712;99.000;2023-03-23T00:48:56;132.20;;;131.40;;
38994;SDS011;24769;18.712;99.000;2023-03-23T00:51:23;113.80;;;112.20;;
38994;SDS011;24769;18.712;99.000;2023-03-23T00:53:50;126.40;;;125.40;;
38994;SDS011;24769;18.712;99.000;2023-03-23T00:56:17;122.60;;;121.20;;
38994;SDS011;24769;18.712;99.000;2023-03-23T00:58:43;124.20;;;123.40;;
38994;SDS011;24769;18.712;99.000;2023-03-23T01:01:10;118.80;;;118.60;;
38994;SDS011;24769;18.712;99.000;2023-03-23T01:03:37;113.40;;;113.40;;
38994;SDS011;24769;18.712;99.000;2023-03-23T01:06:04;115.20;;;111.00;;
38994;SDS011;24769;18.712;99.000;2023-03-23T01:08:33;117.00;;;113.80;;
38994;SDS011;24769;18.712;99.000;2023-03-23T01:11:05;117.40;;;117.40;;
38994;SDS011;24769;18.712;99.000;2023-03-23T01:13:32;117.00;;;113.00;;
38994;SDS011;24769;18.712;99.000;2023-03-23T01:15:59;121.00;;;119.20;;
38994;SDS011;24769;18.712;99.000;2023-03-23T01:18:26;116.80;;;115.80;;
38994;SDS011;24769;18.712;99.000;2023-03-23T01:20:53;104.60;;;104.00;;
38994;SDS011;24769;18.712;99.000;2023-03-23T01:23:19;114.40;;;110.20;;
38994;SDS011;24769;18.712;99.000;2023-03-23T01:25:46;118.40;;;116.80;;
38994;SDS011;24769;18.712;99.000;2023-03-23T01:28:12;118.80;;;116.80;;
38994;SDS011;24769;18.712;99.000;2023-03-23T01:30:40;111.00;;;110.20;;
38994;SDS011;24769;18.712;99.000;2023-03-23T01:33:06;104.60;;;104.20;;
38994;SDS011;24769;18.712;99.000;2023-03-23T01:35:36;102.80;;;102.40;;
38994;SDS011;24769;18.712;99.000;2023-03-23T01:38:03;105.60;;;105.20;;
38994;SDS011;24769;18.712;99.000;2023-03-23T01:40:30;102.20;;;101.60;;
38994;SDS011;24769;18.712;99.000;2023-03-23T01:42:57;106.80;;;105.60;;
38994;SDS011;24769;18.712;99.000;2023-03-23T01:45:34;99.60;;;98.00;;
38994;SDS011;24769;18.712;99.000;2023-03-23T01:48:02;101.80;;;101.40;;
38994;SDS011;24769;18.712;99.000;2023-03-23T01:51:06;96.80;;;96.80;;
38994;SDS011;24769;18.712;99.000;2023-03-23T01:53:33;99.40;;;98.20;;
38994;SDS011;24769;18.712;99.000;2023-03-23T01:56:06;95.80;;;95.80;;
38994;SDS011;24769;18.712;99.000;2023-03-23T01:58:34;105.80;;;104.00;;
38994;SDS011;24769;18.712;99.000;2023-03-23T02:01:05;97.80;;;97.80;;
38994;SDS011;24769;18.712;99.000;2023-03-23T02:03:37;108.20;;;106.60;;
38994;SDS011;24769;18.712;99.000;2023-03-23T02:06:07;99.00;;;98.40;;
38994;SDS011;24769;18.712;99.000;2023-03-23T02:08:34;107.00;;;105.20;;
38994;SDS011;24769;18.712;99.000;2023-03-23T02:11:10;110.40;;;109.40;;
38994;SDS011;24769;18.712;99.000;2023-03-23T02:13:45;102.60;;;102.00;;
38994;SDS011;24769;18.712;99.000;2023-03-23T02:25:08;94.60;;;94.60;;
38994;SDS011;24769;18.712;99.000;2023-03-23T02:33:26;99.00;;;98.60;;
38994;SDS011;24769;18.712;99.000;2023-03-23T02:36:07;98.40;;;97.20;;
38994;SDS011;24769;18.712;99.000;2023-03-23T02:44:33;96.60;;;96.60;;
38994;SDS011;24769;18.712;99.000;2023-03-23T02:47:04;100.20;;;98.40;;
38994;SDS011;24769;18.712;99.000;2023-03-23T02:49:34;94.00;;;93.25;;
38994;SDS011;24769;18.712;99.000;2023-03-23T02:52:10;96.00;;;96.00;;
38994;SDS011;24769;18.712;99.000;2023-03-23T02:54:41;89.75;;;89.00;;
38994;SDS011;24769;18.712;99.000;2023-03-23T02:57:10;87.75;;;87.50;;
38994;SDS011;24769;18.712;99.000;2023-03-23T02:59:37;82.75;;;82.75;;
38994;SDS011;24769;18.712;99.000;2023-03-23T03:04:35;83.00;;;83.00;;
38994;SDS011;24769;18.712;99.000;2023-03-23T03:09:47;90.25;;;89.75;;
38994;SDS011;24769;18.712;99.000;2023-03-23T03:12:39;90.75;;;90.75;;
38994;SDS011;24769;18.712;99.000;2023-03-23T03:17:44;85.50;;;85.50;;
38994;SDS011;24769;18.712;99.000;2023-03-23T03:20:43;80.00;;;80.00;;
38994;SDS011;24769;18.712;99.000;2023-03-23T03:23:16;87.25;;;87.25;;
38994;SDS011;24769;18.712;99.000;2023-03-23T03:25:45;83.50;;;82.75;;
38994;SDS011;24769;18.712;99.000;2023-03-23T03:28:16;68.25;;;58.50;;
38994;SDS011;24769;18.712;99.000;2023-03-23T03:30:47;66.00;;;55.25;;
38994;SDS011;24769;18.712;99.000;2023-03-23T03:33:20;79.50;;;78.25;;
38994;SDS011;24769;18.712;99.000;2023-03-23T03:35:53;76.75;;;75.25;;
38994;SDS011;24769;18.712;99.000;2023-03-23T03:38:21;78.00;;;76.75;;
38994;SDS011;24769;18.712;99.000;2023-03-23T03:40:48;77.25;;;75.75;;
38994;SDS011;24769;18.712;99.000;2023-03-23T03:43:15;81.75;;;81.75;;
38994;SDS011;24769;18.712;99.000;2023-03-23T03:45:42;83.00;;;82.25;;
38994;SDS011;24769;18.712;99.000;2023-03-23T03:48:12;75.25;;;72.50;;
38994;SDS011;24769;18.712;99.000;2023-03-23T03:50:39;78.50;;;77.75;;
38994;SDS011;24769;18.712;99.000;2023-03-23T03:53:06;76.50;;;74.25;;
38994;SDS011;24769;18.712;99.000;2023-03-23T03:55:33;75.75;;;72.75;;
38994;SDS011;24769;18.712;99.000;2023-03-23T03:58:03;76.25;;;72.50;;
38994;SDS011;24769;18.712;99.000;2023-03-23T04:00:33;77.50;;;76.25;;
38994;SDS011;24769;18.712;99.000;2023-03-23T04:03:00;75.75;;;73.50;;
38994;SDS011;24769;18.712;99.000;2023-03-23T04:05:26;73.50;;;68.50;;
38994;SDS011;24769;18.712;99.000;2023-03-23T04:07:55;76.00;;;72.75;;
38994;SDS011;24769;18.712;99.000;2023-03-23T04:10:27;73.50;;;67.75;;
38994;SDS011;24769;18.712;99.000;2023-03-23T04:12:55;73.25;;;68.25;;
38994;SDS011;24769;18.712;99.000;2023-03-23T04:15:21;75.75;;;72.25;;
38994;SDS011;24769;18.712;99.000;2023-03-23T04:17:48;73.00;;;68.75;;
38994;SDS011;24769;18.712;99.000;2023-03-23T04:20:15;74.25;;;69.25;;
38994;SDS011;24769;18.712;99.000;2023-03-23T04:22:46;73.50;;;69.25;;
38994;SDS011;24769;18.712;99.000;2023-03-23T04:25:18;71.00;;;64.00;;
38994;SDS011;24769;18.712;99.000;2023-03-23T04:27:46;71.00;;;65.25;;
38994;SDS011;24769;18.712;99.000;2023-03-23T04:30:18;70.00;;;62.75;;
38994;SDS011;24769;18.712;99.000;2023-03-23T04:32:47;70.75;;;64.25;;
38994;SDS011;24769;18.712;99.000;2023-03-23T04:35:21;72.00;;;65.75;;
38994;SDS011;24769;18.712;99.000;2023-03-23T04:37:53;70.20;;;63.20;;
38994;SDS011;24769;18.712;99.000;2023-03-23T04:40:20;67.00;;;57.60;;
38994;SDS011;24769;18.712;99.000;2023-03-23T04:42:48;71.80;;;67.00;;
38994;SDS011;24769;18.712;99.000;2023-03-23T04:45:20;65.20;;;54.20;;
38994;SDS011;24769;18.712;99.000;2023-03-23T04:47:48;71.00;;;65.00;;
38994;SDS011;24769;18.712;99.000;2023-03-23T04:50:23;69.00;;;59.20;;
38994;SDS011;24769;18.712;99.000;2023-03-23T04:52:56;65.80;;;56.00;;
38994;SDS011;24769;18.712;99.000;2023-03-23T04:55:24;66.80;;;57.20;;
38994;SDS011;24769;18.712;99.000;2023-03-23T04:57:51;65.40;;;56.20;;
38994;SDS011;24769;18.712;99.000;2023-03-23T05:00:18;70.80;;;64.20;;
38994;SDS011;24769;18.712;99.000;2023-03-23T05:02:46;70.20;;;62.60;;
38994;SDS011;24769;18.712;99.000;2023-03-23T05:05:16;67.20;;;58.00;;
38994;SDS011;24769;18.712;99.000;2023-03-23T05:07:45;69.60;;;60.80;;
38994;SDS011;24769;18.712;99.000;2023-03-23T05:10:12;64.40;;;54.20;;
38994;SDS011;24769;18.712;99.000;2023-03-23T05:12:39;67.40;;;58.60;;
38994;SDS011;24769;18.712;99.000;2023-03-23T05:15:07;68.40;;;60.80;;
38994;SDS011;24769;18.712;99.000;2023-03-23T05:17:34;68.60;;;60.00;;
38994;SDS011;24769;18.712;99.000;2023-03-23T05:20:02;67.40;;;58.40;;
38994;SDS011;24769;18.712;99.000;2023-03-23T05:22:35;69.00;;;61.40;;
38994;SDS011;24769;18.712;99.000;2023-03-23T05:25:02;61.00;;;49.80;;
38994;SDS011;24769;18.712;99.000;2023-03-23T05:27:29;68.20;;;61.00;;
38994;SDS011;24769;18.712;99.000;2023-03-23T05:29:58;66.00;;;56.80;;
38994;SDS011;24769;18.712;99.000;2023-03-23T05:32:26;66.80;;;58.40;;
38994;SDS011;24769;18.712;99.000;2023-03-23T05:34:59;69.40;;;62.40;;
38994;SDS011;24769;18.712;99.000;2023-03-23T05:37:27;63.80;;;53.20;;
38994;SDS011;24769;18.712;99.000;2023-03-23T05:39:58;62.00;;;51.00;;
38994;SDS011;24769;18.712;99.000;2023-03-23T05:42:31;62.00;;;51.00;;
38994;SDS011;24769;18.712;99.000;2023-03-23T05:45:04;64.60;;;55.00;;
38994;SDS011;24769;18.712;99.000;2023-03-23T05:47:31;65.00;;;55.20;;
38994;SDS011;24769;18.712;99.000;2023-03-23T05:49:58;64.00;;;53.00;;
38994;SDS011;24769;18.712;99.000;2023-03-23T05:52:25;61.60;;;50.80;;
38994;SDS011;24769;18.712;99.000;2023-03-23T05:54:52;60.40;;;50.00;;
38994;SDS011;24769;18.712;99.000;2023-03-23T05:57:19;59.60;;;49.20;;
38994;SDS011;24769;18.712;99.000;2023-03-23T05:59:49;61.20;;;50.40;;
38994;SDS011;24769;18.712;99.000;2023-03-23T06:02:15;61.20;;;50.60;;
38994;SDS011;24769;18.712;99.000;2023-03-23T06:04:42;53.40;;;44.80;;
38994;SDS011;24769;18.712;99.000;2023-03-23T06:07:09;60.40;;;50.00;;
38994;SDS011;24769;18.712;99.000;2023-03-23T06:09:40;58.00;;;48.00;;
38994;SDS011;24769;18.712;99.000;2023-03-23T06:12:07;59.00;;;48.60;;
38994;SDS011;24769;18.712;99.000;2023-03-23T06:14:35;59.80;;;48.80;;
38994;SDS011;24769;18.712;99.000;2023-03-23T06:17:03;53.60;;;44.80;;
38994;SDS011;24769;18.712;99.000;2023-03-23T06:19:29;55.40;;;46.40;;
38994;SDS011;24769;18.712;99.000;2023-03-23T06:21:56;57.40;;;47.80;;
38994;SDS011;24769;18.712;99.000;2023-03-23T06:24:22;55.20;;;46.20;;
38994;SDS011;24769;18.712;99.000;2023-03-23T06:26:49;54.00;;;45.00;;
38994;SDS011;24769;18.712;99.000;2023-03-23T06:29:15;57.60;;;47.80;;
38994;SDS011;24769;18.712;99.000;2023-03-23T06:31:47;54.80;;;45.80;;
38994;SDS011;24769;18.712;99.000;2023-03-23T06:34:18;54.60;;;45.40;;
38994;SDS011;24769;18.712;99.000;2023-03-23T06:36:44;52.60;;;44.40;;
38994;SDS011;24769;18.712;99.000;2023-03-23T06:39:12;49.60;;;41.80;;
38994;SDS011;24769;18.712;99.000;2023-03-23T06:41:39;55.40;;;46.20;;
38994;SDS011;24769;18.712;99.000;2023-03-23T06:44:06;52.20;;;44.00;;
38994;SDS011;24769;18.712;99.000;2023-03-23T06:46:33;53.20;;;44.60;;
38994;SDS011;24769;18.712;99.000;2023-03-23T06:49:00;53.20;;;44.40;;
38994;SDS011;24769;18.712;99.000;2023-03-23T06:51:27;49.80;;;42.60;;
38994;SDS011;24769;18.712;99.000;2023-03-23T06:53:53;52.80;;;44.40;;
38994;SDS011;24769;18.712;99.000;2023-03-23T06:56:20;53.80;;;44.80;;
38994;SDS011;24769;18.712;99.000;2023-03-23T06:58:46;52.00;;;44.00;;
38994;SDS011;24769;18.712;99.000;2023-03-23T07:01:13;55.20;;;46.60;;
38994;SDS011;24769;18.712;99.000;2023-03-23T07:03:41;54.80;;;45.80;;
38994;SDS011;24769;18.712;99.000;2023-03-23T07:06:08;47.80;;;41.00;;
38994;SDS011;24769;18.712;99.000;2023-03-23T07:08:36;53.00;;;44.40;;
38994;SDS011;24769;18.712;99.000;2023-03-23T07:11:02;52.00;;;43.80;;
38994;SDS011;24769;18.712;99.000;2023-03-23T07:13:29;52.60;;;44.40;;
38994;SDS011;24769;18.712;99.000;2023-03-23T07:15:56;48.80;;;41.40;;
38994;SDS011;24769;18.712;99.000;2023-03-23T07:18:23;51.80;;;43.40;;
38994;SDS011;24769;18.712;99.000;2023-03-23T07:20:51;49.20;;;41.60;;
38994;SDS011;24769;18.712;99.000;2023-03-23T07:23:18;51.20;;;43.20;;
38994;SDS011;24769;18.712;99.000;2023-03-23T07:25:45;49.00;;;41.80;;
38994;SDS011;24769;18.712;99.000;2023-03-23T07:28:14;50.60;;;42.80;;
38994;SDS011;24769;18.712;99.000;2023-03-23T07:30:41;49.00;;;41.60;;
38994;SDS011;24769;18.712;99.000;2023-03-23T07:33:08;47.80;;;40.80;;
38994;SDS011;24769;18.712;99.000;2023-03-23T07:35:36;50.60;;;42.60;;
38994;SDS011;24769;18.712;99.000;2023-03-23T07:38:03;48.20;;;40.80;;
38994;SDS011;24769;18.712;99.000;2023-03-23T07:40:31;50.40;;;43.00;;
38994;SDS011;24769;18.712;99.000;2023-03-23T07:43:01;50.60;;;42.80;;
38994;SDS011;24769;18.712;99.000;2023-03-23T07:45:29;49.40;;;42.00;;
38994;SDS011;24769;18.712;99.000;2023-03-23T07:47:56;48.60;;;41.40;;
38994;SDS011;24769;18.712;99.000;2023-03-23T07:50:23;49.20;;;41.80;;
38994;SDS011;24769;18.712;99.000;2023-03-23T07:52:50;13.20;;;13.20;;
38994;SDS011;24769;18.712;99.000;2023-03-23T07:55:21;47.20;;;40.20;;
38994;SDS011;24769;18.712;99.000;2023-03-23T07:57:50;48.60;;;41.60;;
38994;SDS011;24769;18.712;99.000;2023-03-23T08:00:19;48.00;;;41.00;;
38994;SDS011;24769;18.712;99.000;2023-03-23T08:02:52;48.80;;;41.80;;
38994;SDS011;24769;18.712;99.000;2023-03-23T08:05:20;45.40;;;39.00;;
38994;SDS011;24769;18.712;99.000;2023-03-23T08:07:48;44.20;;;38.40;;
38994;SDS011;24769;18.712;99.000;2023-03-23T08:10:15;46.80;;;40.00;;
38994;SDS011;24769;18.712;99.000;2023-03-23T08:12:43;47.60;;;40.60;;
38994;SDS011;24769;18.712;99.000;2023-03-23T08:15:11;46.00;;;39.80;;
38994;SDS011;24769;18.712;99.000;2023-03-23T08:17:42;46.60;;;40.00;;
38994;SDS011;24769;18.712;99.000;2023-03-23T08:20:09;44.00;;;38.00;;
38994;SDS011;24769;18.712;99.000;2023-03-23T08:22:39;47.60;;;40.60;;
38994;SDS011;24769;18.712;99.000;2023-03-23T08:25:09;48.60;;;41.60;;
38994;SDS011;24769;18.712;99.000;2023-03-23T08:30:09;41.40;;;36.40;;
38994;SDS011;24769;18.712;99.000;2023-03-23T08:32:38;38.20;;;34.40;;
38994;SDS011;24769;18.712;99.000;2023-03-23T08:35:06;39.60;;;35.00;;
38994;SDS011;24769;18.712;99.000;2023-03-23T08:37:35;38.00;;;34.00;;
38994;SDS011;24769;18.712;99.000;2023-03-23T08:40:02;36.40;;;33.00;;
38994;SDS011;24769;18.712;99.000;2023-03-23T08:42:35;38.80;;;34.60;;
38994;SDS011;24769;18.712;99.000;2023-03-23T08:45:04;38.80;;;34.80;;
38994;SDS011;24769;18.712;99.000;2023-03-23T08:47:32;37.20;;;33.60;;
38994;SDS011;24769;18.712;99.000;2023-03-23T08:50:00;41.60;;;36.60;;
38994;SDS011;24769;18.712;99.000;2023-03-23T08:52:32;40.20;;;35.60;;
38994;SDS011;24769;18.712;99.000;2023-03-23T08:54:59;38.80;;;34.80;;
38994;SDS011;24769;18.712;99.000;2023-03-23T08:57:26;43.40;;;37.60;;
38994;SDS011;24769;18.712;99.000;2023-03-23T08:59:52;46.60;;;39.20;;
38994;SDS011;24769;18.712;99.000;2023-03-23T09:02:22;44.20;;;38.00;;
38994;SDS011;24769;18.712;99.000;2023-03-23T09:04:53;37.60;;;34.00;;
38994;SDS011;24769;18.712;99.000;2023-03-23T09:07:19;43.20;;;37.40;;
38994;SDS011;24769;18.712;99.000;2023-03-23T09:09:46;43.40;;;37.40;;
38994;SDS011;24769;18.712;99.000;2023-03-23T09:12:13;47.80;;;40.80;;
38994;SDS011;24769;18.712;99.000;2023-03-23T09:14:40;48.60;;;41.60;;
38994;SDS011;24769;18.712;99.000;2023-03-23T09:17:06;44.00;;;38.00;;
38994;SDS011;24769;18.712;99.000;2023-03-23T09:19:34;45.40;;;39.20;;
38994;SDS011;24769;18.712;99.000;2023-03-23T09:22:01;49.60;;;42.40;;
38994;SDS011;24769;18.712;99.000;2023-03-23T09:24:29;49.40;;;42.00;;
38994;SDS011;24769;18.712;99.000;2023-03-23T09:26:56;49.00;;;41.80;;
38994;SDS011;24769;18.712;99.000;2023-03-23T09:29:24;48.40;;;41.40;;
38994;SDS011;24769;18.712;99.000;2023-03-23T09:31:54;52.20;;;44.20;;
38994;SDS011;24769;18.712;99.000;2023-03-23T09:34:21;54.60;;;45.60;;
38994;SDS011;24769;18.712;99.000;2023-03-23T09:36:48;51.20;;;43.20;;
38994;SDS011;24769;18.712;99.000;2023-03-23T09:39:15;56.60;;;47.40;;
38994;SDS011;24769;18.712;99.000;2023-03-23T09:47:17;58.60;;;48.80;;
38994;SDS011;24769;18.712;99.000;2023-03-23T09:49:59;63.40;;;52.60;;
38994;SDS011;24769;18.712;99.000;2023-03-23T09:52:48;63.00;;;52.00;;
38994;SDS011;24769;18.712;99.000;2023-03-23T09:55:40;62.40;;;51.40;;
38994;SDS011;24769;18.712;99.000;2023-03-23T09:58:18;65.20;;;54.80;;
38994;SDS011;24769;18.712;99.000;2023-03-23T10:00:52;66.60;;;57.00;;
38994;SDS011;24769;18.712;99.000;2023-03-23T10:03:35;64.40;;;52.80;;
38994;SDS011;24769;18.712;99.000;2023-03-23T10:06:07;66.60;;;56.80;;
38994;SDS011;24769;18.712;99.000;2023-03-23T10:08:39;67.20;;;57.60;;
38994;SDS011;24769;18.712;99.000;2023-03-23T10:14:20;69.80;;;61.80;;
38994;SDS011;24769;18.712;99.000;2023-03-23T10:19:43;69.50;;;61.50;;
38994;SDS011;24769;18.712;99.000;2023-03-23T10:23:05;70.50;;;63.00;;
38994;SDS011;24769;18.712;99.000;2023-03-23T10:25:34;71.00;;;63.75;;
38994;SDS011;24769;18.712;99.000;2023-03-23T10:28:13;73.50;;;67.75;;
38994;SDS011;24769;18.712;99.000;2023-03-23T10:30:53;77.50;;;75.00;;
38994;SDS011;24769;18.712;99.000;2023-03-23T10:33:37;76.00;;;72.67;;
38994;SDS011;24769;18.712;99.000;2023-03-23T10:36:30;77.00;;;74.75;;
38994;SDS011;24769;18.712;99.000;2023-03-23T10:41:39;76.00;;;73.25;;
38994;SDS011;24769;18.712;99.000;2023-03-23T10:44:11;82.75;;;80.75;;
38994;SDS011;24769;18.712;99.000;2023-03-23T10:47:06;82.25;;;81.75;;
38994;SDS011;24769;18.712;99.000;2023-03-23T10:49:36;80.50;;;80.50;;
38994;SDS011;24769;18.712;99.000;2023-03-23T10:57:28;85.75;;;85.75;;
38994;SDS011;24769;18.712;99.000;2023-03-23T11:02:58;85.00;;;85.00;;
38994;SDS011;24769;18.712;99.000;2023-03-23T11:08:16;82.75;;;81.75;;
38994;SDS011;24769;18.712;99.000;2023-03-23T11:10:56;90.75;;;90.00;;
38994;SDS011;24769;18.712;99.000;2023-03-23T11:13:38;85.25;;;85.25;;
38994;SDS011;24769;18.712;99.000;2023-03-23T11:16:09;87.50;;;87.25;;
38994;SDS011;24769;18.712;99.000;2023-03-23T11:21:05;86.25;;;84.75;;
38994;SDS011;24769;18.712;99.000;2023-03-23T11:26:15;89.75;;;89.75;;
38994;SDS011;24769;18.712;99.000;2023-03-23T11:31:30;94.20;;;94.20;;
38994;SDS011;24769;18.712;99.000;2023-03-23T11:34:03;97.60;;;96.40;;
38994;SDS011;24769;18.712;99.000;2023-03-23T11:36:37;91.20;;;90.40;;
38994;SDS011;24769;18.712;99.000;2023-03-23T11:41:59;83.75;;;83.75;;
38994;SDS011;24769;18.712;99.000;2023-03-23T11:44:34;84.50;;;84.00;;
38994;SDS011;24769;18.712;99.000;2023-03-23T11:47:10;80.50;;;79.25;;
38994;SDS011;24769;18.712;99.000;2023-03-23T11:55:14;84.25;;;83.25;;
38994;SDS011;24769;18.712;99.000;2023-03-23T11:57:47;83.75;;;83.50;;
38994;SDS011;24769;18.712;99.000;2023-03-23T12:00:16;84.00;;;82.20;;
38994;SDS011;24769;18.712;99.000;2023-03-23T12:05:51;85.60;;;84.40;;
38994;SDS011;24769;18.712;99.000;2023-03-23T12:13:56;89.80;;;89.40;;
38994;SDS011;24769;18.712;99.000;2023-03-23T12:25:39;85.00;;;84.60;;
38994;SDS011;24769;18.712;99.000;2023-03-23T12:31:43;83.60;;;83.40;;
38994;SDS011;24769;18.712;99.000;2023-03-23T12:37:05;90.80;;;89.00;;
38994;SDS011;24769;18.712;99.000;2023-03-23T12:48:44;94.20;;;92.00;;
38994;SDS011;24769;18.712;99.000;2023-03-23T12:54:20;83.40;;;83.40;;
38994;SDS011;24769;18.712;99.000;2023-03-23T12:59:32;91.60;;;91.40;;
38994;SDS011;24769;18.712;99.000;2023-03-23T13:05:38;91.00;;;90.40;;
38994;SDS011;24769;18.712;99.000;2023-03-23T13:07:51;91.40;;;89.80;;
38994;SDS011;24769;18.712;99.000;2023-03-23T13:10:35;94.80;;;94.60;;
38994;SDS011;24769;18.712;99.000;2023-03-23T13:13:20;103.20;;;102.20;;
38994;SDS011;24769;18.712;99.000;2023-03-23T13:18:41;106.40;;;106.40;;
38994;SDS011;24769;18.712;99.000;2023-03-23T13:21:26;111.40;;;111.20;;
38994;SDS011;24769;18.712;99.000;2023-03-23T13:24:02;106.20;;;106.20;;
38994;SDS011;24769;18.712;99.000;2023-03-23T13:26:31;114.00;;;113.20;;
38994;SDS011;24769;18.712;99.000;2023-03-23T13:29:06;110.40;;;109.20;;
38994;SDS011;24769;18.712;99.000;2023-03-23T13:31:39;114.00;;;113.40;;
38994;SDS011;24769;18.712;99.000;2023-03-23T13:39:27;108.00;;;107.40;;
38994;SDS011;24769;18.712;99.000;2023-03-23T13:42:17;112.00;;;111.60;;
38994;SDS011;24769;18.712;99.000;2023-03-23T13:53:30;113.80;;;113.60;;
38994;SDS011;24769;18.712;99.000;2023-03-23T13:59:35;93.60;;;92.80;;
38994;SDS011;24769;18.712;99.000;2023-03-23T14:04:56;103.40;;;102.00;;
38994;SDS011;24769;18.712;99.000;2023-03-23T14:07:50;94.80;;;94.40;;
38994;SDS011;24769;18.712;99.000;2023-03-23T14:10:19;107.80;;;106.80;;
38994;SDS011;24769;18.712;99.000;2023-03-23T14:12:48;111.80;;;110.80;;
38994;SDS011;24769;18.712;99.000;2023-03-23T14:15:18;108.20;;;106.60;;
38994;SDS011;24769;18.712;99.000;2023-03-23T14:17:53;97.80;;;97.20;;
38994;SDS011;24769;18.712;99.000;2023-03-23T14:20:26;96.60;;;96.40;;
38994;SDS011;24769;18.712;99.000;2023-03-23T14:22:59;93.40;;;92.60;;
38994;SDS011;24769;18.712;99.000;2023-03-23T14:25:26;95.80;;;94.80;;
38994;SDS011;24769;18.712;99.000;2023-03-23T14:27:56;98.40;;;98.20;;
38994;SDS011;24769;18.712;99.000;2023-03-23T14:30:27;95.80;;;95.80;;
38994;SDS011;24769;18.712;99.000;2023-03-23T14:33:03;96.40;;;95.40;;
38994;SDS011;24769;18.712;99.000;2023-03-23T14:35:36;78.80;;;76.60;;
38994;SDS011;24769;18.712;99.000;2023-03-23T14:38:06;93.80;;;93.40;;
38994;SDS011;24769;18.712;99.000;2023-03-23T14:40:50;96.40;;;96.00;;
38994;SDS011;24769;18.712;99.000;2023-03-23T14:43:17;101.20;;;99.40;;
38994;SDS011;24769;18.712;99.000;2023-03-23T14:45:51;98.60;;;97.40;;
38994;SDS011;24769;18.712;99.000;2023-03-23T14:48:20;90.00;;;90.00;;
38994;SDS011;24769;18.712;99.000;2023-03-23T14:50:51;90.00;;;88.60;;
38994;SDS011;24769;18.712;99.000;2023-03-23T14:53:24;88.60;;;88.00;;
38994;SDS011;24769;18.712;99.000;2023-03-23T14:55:55;100.00;;;97.60;;
38994;SDS011;24769;18.712;99.000;2023-03-23T14:58:25;97.80;;;97.00;;
38994;SDS011;24769;18.712;99.000;2023-03-23T15:03:19;88.40;;;88.40;;
38994;SDS011;24769;18.712;99.000;2023-03-23T15:05:49;84.80;;;84.80;;
38994;SDS011;24769;18.712;99.000;2023-03-23T15:08:29;88.80;;;88.80;;
38994;SDS011;24769;18.712;99.000;2023-03-23T15:11:04;93.40;;;93.20;;
38994;SDS011;24769;18.712;99.000;2023-03-23T15:13:42;84.60;;;83.80;;
38994;SDS011;24769;18.712;99.000;2023-03-23T15:16:15;95.20;;;94.20;;
38994;SDS011;24769;18.712;99.000;2023-03-23T15:18:49;89.00;;;88.40;;
38994;SDS011;24769;18.712;99.000;2023-03-23T15:21:36;95.60;;;95.20;;
38994;SDS011;24769;18.712;99.000;2023-03-23T15:26:49;86.80;;;85.00;;
38994;SDS011;24769;18.712;99.000;2023-03-23T15:29:17;88.80;;;88.80;;
38994;SDS011;24769;18.712;99.000;2023-03-23T15:31:52;91.20;;;90.60;;
38994;SDS011;24769;18.712;99.000;2023-03-23T15:37:00;91.00;;;90.80;;
38994;SDS011;24769;18.712;99.000;2023-03-23T15:39:30;85.80;;;85.80;;
38994;SDS011;24769;18.712;99.000;2023-03-23T15:41:58;94.80;;;93.80;;
38994;SDS011;24769;18.712;99.000;2023-03-23T15:44:29;89.80;;;89.20;;
38994;SDS011;24769;18.712;99.000;2023-03-23T15:47:12;88.20;;;88.20;;
38994;SDS011;24769;18.712;99.000;2023-03-23T15:49:44;86.60;;;86.60;;
38994;SDS011;24769;18.712;99.000;2023-03-23T15:52:12;92.40;;;92.40;;
38994;SDS011;24769;18.712;99.000;2023-03-23T15:54:46;90.40;;;89.00;;
38994;SDS011;24769;18.712;99.000;2023-03-23T15:57:14;91.80;;;91.60;;
38994;SDS011;24769;18.712;99.000;2023-03-23T15:59:42;89.20;;;88.80;;
38994;SDS011;24769;18.712;99.000;2023-03-23T16:02:13;95.20;;;91.80;;
38994;SDS011;24769;18.712;99.000;2023-03-23T16:04:44;89.60;;;87.80;;
38994;SDS011;24769;18.712;99.000;2023-03-23T16:07:10;88.00;;;87.60;;
38994;SDS011;24769;18.712;99.000;2023-03-23T16:09:38;81.20;;;80.20;;
38994;SDS011;24769;18.712;99.000;2023-03-23T16:12:09;98.20;;;96.80;;
38994;SDS011;24769;18.712;99.000;2023-03-23T16:14:39;88.00;;;87.80;;
38994;SDS011;24769;18.712;99.000;2023-03-23T16:17:08;90.40;;;88.60;;
38994;SDS011;24769;18.712;99.000;2023-03-23T16:19:40;93.00;;;90.40;;
38994;SDS011;24769;18.712;99.000;2023-03-23T16:22:07;98.80;;;98.80;;
38994;SDS011;24769;18.712;99.000;2023-03-23T16:24:34;106.40;;;104.20;;
38994;SDS011;24769;18.712;99.000;2023-03-23T16:27:01;103.00;;;103.00;;
38994;SDS011;24769;18.712;99.000;2023-03-23T16:29:28;108.00;;;106.60;;
38994;SDS011;24769;18.712;99.000;2023-03-23T16:31:54;104.40;;;103.40;;
38994;SDS011;24769;18.712;99.000;2023-03-23T16:34:21;94.60;;;94.40;;
38994;SDS011;24769;18.712;99.000;2023-03-23T16:36:48;84.60;;;84.20;;
38994;SDS011;24769;18.712;99.000;2023-03-23T16:39:14;99.00;;;98.80;;
38994;SDS011;24769;18.712;99.000;2023-03-23T16:41:43;102.80;;;102.00;;
38994;SDS011;24769;18.712;99.000;2023-03-23T16:44:10;100.20;;;100.20;;
38994;SDS011;24769;18.712;99.000;2023-03-23T16:46:37;102.00;;;99.80;;
38994;SDS011;24769;18.712;99.000;2023-03-23T16:49:03;99.20;;;99.00;;